createdAt,value
2022-11-05T00:00:15.703Z,10.08
2022-11-05T00:03:01.453Z,9.97
2022-11-05T00:05:47.072Z,10.00
2022-11-05T00:08:32.617Z,9.96
2022-11-05T00:10:59.740Z,9.83
2022-11-05T00:13:45.433Z,9.80
2022-11-05T00:16:30.911Z,9.81
2022-11-05T00:19:06.853Z,9.80
2022-11-05T00:21:54.029Z,9.79
2022-11-05T00:24:40.152Z,9.83
2022-11-05T00:27:08.145Z,9.80
2022-11-05T00:29:36.002Z,9.73
2022-11-05T00:32:03.099Z,9.67
2022-11-05T00:34:30.219Z,9.60
2022-11-05T00:36:57.130Z,9.58
2022-11-05T00:39:24.253Z,9.55
2022-11-05T00:42:09.863Z,9.55
2022-11-05T00:44:55.418Z,9.49
2022-11-05T00:47:40.840Z,9.40
2022-11-05T00:50:08.154Z,9.38
2022-11-05T00:52:53.709Z,9.29
2022-11-05T00:55:20.989Z,9.31
2022-11-05T00:57:47.924Z,9.28
2022-11-05T01:00:15.307Z,9.28
2022-11-05T01:02:42.441Z,9.25
2022-11-05T01:05:09.588Z,9.16
2022-11-05T01:07:36.586Z,9.20
2022-11-05T01:10:03.948Z,9.20
2022-11-05T01:12:32.187Z,9.09
2022-11-05T01:14:59.779Z,9.05
2022-11-05T01:17:26.679Z,8.91
2022-11-05T01:19:53.617Z,8.89
2022-11-05T01:22:20.495Z,8.87
2022-11-05T01:24:47.485Z,8.88
2022-11-05T01:27:14.506Z,8.84
2022-11-05T01:29:42.340Z,8.80
2022-11-05T01:32:09.971Z,8.76
2022-11-05T01:34:37.289Z,8.68
2022-11-05T01:37:04.130Z,8.71
2022-11-05T01:39:31.513Z,8.63
2022-11-05T01:41:58.905Z,8.68
2022-11-05T01:45:01.871Z,8.69
2022-11-05T01:47:47.709Z,8.65
2022-11-05T01:50:44.770Z,8.66
2022-11-05T01:53:30.194Z,8.70
2022-11-05T01:56:03.236Z,8.71
2022-11-05T01:58:36.778Z,8.65
2022-11-05T02:01:04.030Z,8.67
2022-11-05T02:03:31.618Z,8.62
2022-11-05T02:06:00.901Z,8.68
2022-11-05T02:08:42.652Z,8.62
2022-11-05T02:11:09.759Z,8.61
2022-11-05T02:13:36.987Z,8.49
2022-11-05T02:16:23.366Z,8.60
2022-11-05T02:19:23.322Z,7.95
2022-11-05T02:22:17.906Z,8.48
2022-11-05T02:24:44.737Z,8.49
2022-11-05T02:27:33.135Z,8.47
2022-11-05T02:30:05.959Z,8.47
2022-11-05T02:32:51.776Z,8.50
2022-11-05T02:35:30.895Z,8.47
2022-11-05T02:38:09.043Z,8.28
2022-11-05T02:40:44.849Z,8.32
2022-11-05T02:43:16.543Z,8.33
2022-11-05T02:45:51.040Z,8.30
2022-11-05T02:48:18.106Z,8.29
2022-11-05T02:51:15.573Z,8.28
2022-11-05T02:53:49.331Z,8.28
2022-11-05T02:56:39.657Z,8.30
2022-11-05T02:59:06.848Z,8.27
2022-11-05T03:01:36.030Z,8.26
2022-11-05T03:04:06.927Z,8.24
2022-11-05T03:06:33.789Z,8.19
2022-11-05T03:09:26.444Z,8.08
2022-11-05T03:12:23.988Z,8.14
2022-11-05T03:15:09.142Z,8.13
2022-11-05T03:17:52.968Z,8.15
2022-11-05T03:20:25.238Z,8.13
2022-11-05T03:22:58.620Z,7.83
2022-11-05T03:25:29.332Z,8.11
2022-11-05T03:28:05.562Z,8.09
2022-11-05T03:30:35.649Z,8.14
2022-11-05T03:33:16.222Z,8.13
2022-11-05T03:35:48.099Z,8.07
2022-11-05T03:38:22.030Z,8.16
2022-11-05T03:40:54.457Z,8.06
2022-11-05T03:43:25.012Z,8.01
2022-11-05T03:46:24.671Z,8.02
2022-11-05T03:48:55.646Z,8.04
2022-11-05T03:51:41.984Z,8.03
2022-11-05T03:54:10.824Z,7.93
2022-11-05T03:56:52.395Z,7.91
2022-11-05T03:59:20.719Z,7.90
2022-11-05T04:01:48.447Z,7.89
2022-11-05T04:04:15.806Z,7.87
2022-11-05T04:07:01.149Z,7.83
2022-11-05T04:09:46.878Z,7.80
2022-11-05T04:12:32.248Z,7.78
2022-11-05T04:14:59.365Z,7.70
2022-11-05T04:17:26.410Z,7.79
2022-11-05T04:20:25.584Z,7.75
2022-11-05T04:23:31.070Z,7.73
2022-11-05T04:25:58.014Z,7.64
2022-11-05T04:28:44.822Z,7.71
2022-11-05T04:31:12.114Z,7.70
2022-11-05T04:33:38.904Z,7.69
2022-11-05T04:36:06.293Z,7.69
2022-11-05T04:38:33.146Z,7.73
2022-11-05T04:41:14.328Z,7.72
2022-11-05T04:43:41.461Z,7.72
2022-11-05T04:46:08.606Z,7.69
2022-11-05T04:48:35.777Z,7.71
2022-11-05T04:51:02.839Z,7.71
2022-11-05T04:53:29.830Z,7.69
2022-11-05T04:56:12.862Z,7.78
2022-11-05T04:58:41.693Z,7.84
2022-11-05T05:01:14.501Z,7.87
2022-11-05T05:03:41.798Z,7.93
2022-11-05T05:06:10.340Z,8.01
2022-11-05T05:08:38.536Z,8.09
2022-11-05T05:11:09.350Z,8.13
2022-11-05T05:13:36.833Z,8.14
2022-11-05T05:16:09.179Z,8.17
2022-11-05T05:18:36.421Z,8.22
2022-11-05T05:21:21.736Z,8.31
2022-11-05T05:23:48.948Z,8.34
2022-11-05T05:26:16.852Z,8.33
2022-11-05T05:28:44.154Z,8.40
2022-11-05T05:31:11.592Z,8.49
2022-11-05T05:33:39.022Z,8.47
2022-11-05T05:36:11.055Z,8.53
2022-11-05T05:38:39.077Z,8.63
2022-11-05T05:41:06.278Z,8.61
2022-11-05T05:43:34.439Z,8.62
2022-11-05T05:46:06.562Z,8.65
2022-11-05T05:48:34.396Z,8.66
2022-11-05T05:51:02.671Z,8.75
2022-11-05T05:53:30.766Z,8.81
2022-11-05T05:55:58.995Z,8.91
2022-11-05T05:58:30.746Z,8.98
2022-11-05T06:01:05.148Z,8.99
2022-11-05T06:03:32.386Z,9.08
2022-11-05T06:06:10.777Z,9.23
2022-11-05T06:08:37.709Z,9.30
2022-11-05T06:11:05.596Z,9.43
2022-11-05T06:13:33.608Z,9.54
2022-11-05T06:16:07.052Z,9.51
2022-11-05T06:18:34.512Z,9.63
2022-11-05T06:21:03.653Z,9.77
2022-11-05T06:23:35.578Z,9.86
2022-11-05T06:26:10.684Z,9.97
2022-11-05T06:28:38.188Z,10.05
2022-11-05T06:31:05.914Z,10.09
2022-11-05T06:33:32.911Z,10.14
2022-11-05T06:36:01.804Z,10.25
2022-11-05T06:38:31.532Z,10.41
2022-11-05T06:40:59.534Z,10.40
2022-11-05T06:43:28.637Z,10.37
2022-11-05T06:45:56.644Z,10.39
2022-11-05T06:48:25.569Z,10.36
2022-11-05T06:50:52.806Z,10.46
2022-11-05T06:53:20.087Z,10.58
2022-11-05T06:55:50.437Z,10.63
2022-11-05T06:58:17.473Z,10.75
2022-11-05T07:00:45.153Z,10.95
2022-11-05T07:03:13.113Z,11.03
2022-11-05T07:05:43.836Z,11.17
2022-11-05T07:08:10.998Z,11.25
2022-11-05T07:10:38.229Z,11.39
2022-11-05T07:13:08.407Z,11.54
2022-11-05T07:15:38.852Z,11.63
2022-11-05T07:18:07.588Z,11.71
2022-11-05T07:20:35.253Z,11.75
2022-11-05T07:23:07.170Z,11.90
2022-11-05T07:25:34.771Z,11.99
2022-11-05T07:28:02.726Z,12.10
2022-11-05T07:30:30.692Z,12.02
2022-11-05T07:32:57.870Z,12.12
2022-11-05T07:35:25.734Z,12.13
2022-11-05T07:37:54.168Z,12.24
2022-11-05T07:40:22.432Z,12.30
2022-11-05T07:42:52.236Z,12.42
2022-11-05T07:45:19.738Z,12.61
2022-11-05T07:47:55.586Z,12.63
2022-11-05T07:50:25.192Z,12.67
2022-11-05T07:52:52.763Z,12.96
2022-11-05T07:55:21.068Z,13.06
2022-11-05T07:57:50.343Z,13.24
2022-11-05T08:00:22.431Z,13.32
2022-11-05T08:03:07.166Z,13.46
2022-11-05T08:05:39.429Z,13.59
2022-11-05T08:08:14.153Z,13.76
2022-11-05T08:10:41.590Z,13.94
2022-11-05T08:13:09.973Z,14.14
2022-11-05T08:15:39.421Z,14.24
2022-11-05T08:18:17.680Z,14.47
2022-11-05T08:20:45.829Z,14.62
2022-11-05T08:23:13.062Z,14.71
2022-11-05T08:25:41.471Z,14.89
2022-11-05T08:28:12.933Z,14.97
2022-11-05T08:30:40.652Z,15.18
2022-11-05T08:33:11.211Z,15.26
2022-11-05T08:35:39.338Z,15.44
2022-11-05T08:38:36.049Z,15.61
2022-11-05T08:41:03.201Z,15.78
2022-11-05T08:43:30.229Z,15.89
2022-11-05T08:45:57.440Z,16.03
2022-11-05T08:48:24.543Z,16.02
2022-11-05T08:50:51.778Z,16.20
2022-11-05T08:53:19.036Z,16.30
2022-11-05T08:55:50.187Z,16.41
2022-11-05T08:58:17.987Z,16.49
2022-11-05T09:00:47.851Z,16.55
2022-11-05T09:03:16.017Z,16.63
2022-11-05T09:05:43.696Z,16.67
2022-11-05T09:08:13.780Z,16.71
2022-11-05T09:10:42.114Z,16.84
2022-11-05T09:13:16.661Z,16.94
2022-11-05T09:15:45.820Z,17.06
2022-11-05T09:18:14.465Z,17.12
2022-11-05T09:20:42.579Z,17.12
2022-11-05T09:23:11.851Z,17.20
2022-11-05T09:25:39.556Z,17.26
2022-11-05T09:28:18.847Z,17.32
2022-11-05T09:30:50.806Z,17.36
2022-11-05T09:33:20.527Z,17.45
2022-11-05T09:35:47.940Z,17.62
2022-11-05T09:38:15.247Z,17.70
2022-11-05T09:41:13.270Z,17.78
2022-11-05T09:43:52.045Z,17.89
2022-11-05T09:46:33.816Z,17.99
2022-11-05T09:49:06.198Z,18.02
2022-11-05T09:51:36.162Z,18.21
2022-11-05T09:54:04.632Z,18.21
2022-11-05T09:56:37.069Z,18.29
2022-11-05T09:59:07.521Z,18.34
2022-11-05T10:01:38.033Z,18.44
2022-11-05T10:04:16.431Z,18.52
2022-11-05T10:06:54.735Z,18.54
2022-11-05T10:09:31.623Z,18.71
2022-11-05T10:12:07.830Z,18.60
2022-11-05T10:14:40.949Z,18.74
2022-11-05T10:17:14.983Z,18.99
2022-11-05T10:19:50.046Z,19.07
2022-11-05T10:22:19.441Z,19.14
2022-11-05T10:24:49.581Z,19.17
2022-11-05T10:30:15.694Z,19.27
2022-11-05T10:32:44.892Z,19.35
2022-11-05T10:35:22.803Z,19.46
2022-11-05T10:37:51.436Z,19.60
2022-11-05T10:40:36.451Z,19.71
2022-11-05T10:43:06.668Z,19.80
2022-11-05T10:45:52.587Z,19.87
2022-11-05T10:48:44.070Z,20.01
2022-11-05T10:51:11.735Z,20.09
2022-11-05T10:53:39.914Z,20.14
2022-11-05T10:56:37.975Z,20.15
2022-11-05T10:59:18.952Z,20.23
2022-11-05T11:01:47.266Z,20.08
2022-11-05T11:04:24.163Z,20.27
2022-11-05T11:06:56.425Z,20.31
2022-11-05T11:09:30.724Z,20.42
2022-11-05T11:12:20.656Z,20.44
2022-11-05T11:15:14.977Z,20.56
2022-11-05T11:17:42.828Z,20.64
2022-11-05T11:20:30.105Z,20.73
2022-11-05T11:23:05.260Z,20.81
2022-11-05T11:26:00.748Z,20.86
2022-11-05T11:28:33.847Z,20.91
2022-11-05T11:31:13.694Z,21.06
2022-11-05T11:33:44.118Z,21.09
2022-11-05T11:36:13.034Z,21.23
2022-11-05T11:38:41.382Z,21.33
2022-11-05T11:41:12.145Z,21.30
2022-11-05T11:43:42.338Z,21.37
2022-11-05T11:46:20.125Z,21.43
2022-11-05T11:49:03.892Z,21.47
2022-11-05T11:51:49.882Z,21.54
2022-11-05T11:54:28.620Z,21.57
2022-11-05T11:56:58.628Z,21.67
2022-11-05T11:59:53.991Z,21.62
2022-11-05T12:02:43.091Z,21.66
2022-11-05T12:05:28.966Z,21.74
2022-11-05T12:08:04.964Z,21.76
2022-11-05T12:10:48.353Z,21.77
2022-11-05T12:13:54.044Z,21.84
2022-11-05T12:16:45.745Z,21.83
2022-11-05T12:19:22.082Z,21.93
2022-11-05T12:22:04.758Z,21.95
2022-11-05T12:24:40.955Z,22.04
2022-11-05T12:27:38.245Z,22.03
2022-11-05T12:30:12.443Z,22.08
2022-11-05T12:33:10.204Z,22.19
2022-11-05T12:35:54.815Z,22.25
2022-11-05T12:38:42.967Z,22.27
2022-11-05T12:41:21.862Z,22.32
2022-11-05T12:44:13.738Z,22.35
2022-11-05T12:47:07.504Z,22.54
2022-11-05T12:49:51.997Z,22.65
2022-11-05T12:52:43.663Z,22.69
2022-11-05T12:55:24.196Z,22.68
2022-11-05T12:58:00.271Z,22.69
2022-11-05T13:00:29.530Z,22.75
2022-11-05T13:03:12.193Z,22.79
2022-11-05T13:06:05.426Z,22.80
2022-11-05T13:08:49.814Z,22.80
2022-11-05T13:11:26.412Z,22.78
2022-11-05T13:14:27.053Z,22.88
2022-11-05T13:17:05.483Z,22.80
2022-11-05T13:19:38.710Z,22.81
2022-11-05T13:22:17.802Z,22.82
2022-11-05T13:24:53.271Z,22.38
2022-11-05T13:27:41.040Z,22.69
2022-11-05T13:30:22.759Z,22.52
2022-11-05T13:32:53.336Z,22.41
2022-11-05T13:35:27.203Z,22.34
2022-11-05T13:38:20.382Z,22.34
2022-11-05T13:41:14.903Z,22.26
2022-11-05T13:43:44.819Z,22.14
2022-11-05T13:46:22.764Z,21.95
2022-11-05T13:49:18.864Z,21.87
2022-11-05T13:51:50.069Z,21.72
2022-11-05T13:54:26.083Z,21.68
2022-11-05T13:57:17.978Z,21.58
2022-11-05T14:00:24.622Z,21.48
2022-11-05T14:02:58.043Z,21.31
2022-11-05T14:05:36.683Z,21.18
2022-11-05T14:08:21.183Z,21.04
2022-11-05T14:11:15.696Z,21.00
2022-11-05T14:13:45.205Z,20.80
2022-11-05T14:16:40.835Z,20.76
2022-11-05T14:19:20.277Z,20.60
2022-11-05T14:21:57.652Z,20.47
2022-11-05T14:24:40.567Z,20.27
2022-11-05T14:27:08.646Z,20.23
2022-11-05T14:29:45.114Z,20.08
2022-11-05T14:32:20.942Z,19.96
2022-11-05T14:35:07.868Z,19.87
2022-11-05T14:38:00.292Z,19.65
2022-11-05T14:40:42.402Z,19.61
2022-11-05T14:43:22.213Z,19.48
2022-11-05T14:46:02.929Z,19.40
2022-11-05T14:48:46.907Z,19.27
2022-11-05T14:51:38.907Z,19.18
2022-11-05T14:54:27.206Z,19.08
2022-11-05T14:57:00.043Z,18.91
2022-11-05T14:59:31.823Z,18.81
2022-11-05T15:02:17.437Z,18.68
2022-11-05T15:04:48.333Z,18.55
2022-11-05T15:07:24.511Z,18.54
2022-11-05T15:09:54.528Z,18.48
2022-11-05T15:12:40.289Z,18.37
2022-11-05T15:15:21.404Z,18.27
2022-11-05T15:17:58.383Z,18.19
2022-11-05T15:20:39.628Z,18.10
2022-11-05T15:23:09.777Z,17.98
2022-11-05T15:25:58.568Z,17.95
2022-11-05T15:28:35.634Z,17.92
2022-11-05T15:31:31.229Z,17.82
2022-11-05T15:34:17.088Z,17.80
2022-11-05T15:36:48.494Z,17.70
2022-11-05T15:39:41.540Z,17.56
2022-11-05T15:42:25.474Z,17.46
2022-11-05T15:44:55.163Z,17.37
2022-11-05T15:47:28.586Z,17.30
2022-11-05T15:50:02.109Z,17.18
2022-11-05T15:52:42.446Z,17.18
2022-11-05T15:55:12.251Z,17.14
2022-11-05T15:57:50.448Z,17.10
2022-11-05T16:00:24.594Z,17.04
2022-11-05T16:03:24.388Z,17.09
2022-11-05T16:05:51.649Z,17.05
2022-11-05T16:08:21.861Z,16.94
2022-11-05T16:10:52.434Z,16.95
2022-11-05T16:13:33.222Z,16.90
2022-11-05T16:16:03.539Z,16.82
2022-11-05T16:18:36.069Z,16.82
2022-11-05T16:21:14.380Z,16.82
2022-11-05T16:23:43.126Z,16.79
2022-11-05T16:29:23.186Z,16.56
2022-11-05T16:31:52.976Z,16.57
2022-11-05T16:34:46.818Z,16.52
2022-11-05T16:37:16.262Z,16.45
2022-11-05T16:39:43.133Z,16.36
2022-11-05T16:42:23.022Z,16.31
2022-11-05T16:44:51.467Z,16.25
2022-11-05T16:47:19.851Z,16.28
2022-11-05T16:49:50.303Z,16.19
2022-11-05T16:52:17.453Z,16.06
2022-11-05T16:54:44.664Z,15.86
2022-11-05T16:57:37.951Z,15.93
2022-11-05T17:00:06.576Z,15.85
2022-11-05T17:02:33.671Z,15.81
2022-11-05T17:05:01.027Z,15.73
2022-11-05T17:07:28.100Z,15.72
2022-11-05T17:09:56.082Z,15.67
2022-11-05T17:12:23.075Z,15.53
2022-11-05T17:14:50.102Z,15.46
2022-11-05T17:17:17.081Z,15.41
2022-11-05T17:19:44.877Z,15.34
2022-11-05T17:22:11.775Z,15.17
2022-11-05T17:24:39.085Z,15.16
2022-11-05T17:27:06.267Z,15.08
2022-11-05T17:29:33.433Z,14.96
2022-11-05T17:32:00.618Z,14.96
2022-11-05T17:34:27.682Z,14.92
2022-11-05T17:36:54.939Z,14.84
2022-11-05T17:39:24.855Z,14.73
2022-11-05T17:41:55.188Z,14.72
2022-11-05T17:44:22.175Z,14.64
2022-11-05T17:46:49.899Z,14.57
2022-11-05T17:49:16.910Z,14.36
2022-11-05T17:51:43.920Z,14.42
2022-11-05T17:54:11.121Z,14.33
2022-11-05T17:56:44.479Z,14.29
2022-11-05T17:59:11.998Z,14.23
2022-11-05T18:01:43.458Z,14.17
2022-11-05T18:04:11.097Z,14.02
2022-11-05T18:06:41.671Z,14.02
2022-11-05T18:09:09.900Z,13.93
2022-11-05T18:11:37.967Z,13.88
2022-11-05T18:14:05.173Z,13.81
2022-11-05T18:16:32.956Z,13.62
2022-11-05T18:19:01.151Z,13.59
2022-11-05T18:21:28.362Z,13.51
2022-11-05T18:23:55.464Z,13.44
2022-11-05T18:26:22.352Z,13.36
2022-11-05T18:28:49.539Z,13.26
2022-11-05T18:31:20.613Z,13.17
2022-11-05T18:33:51.515Z,13.14
2022-11-05T18:36:24.522Z,13.04
2022-11-05T18:38:52.352Z,13.06
2022-11-05T18:41:20.695Z,13.01
2022-11-05T18:43:47.792Z,12.95
2022-11-05T18:46:43.161Z,13.00
2022-11-05T18:49:05.713Z,12.97
2022-11-05T18:51:33.083Z,12.93
2022-11-05T18:54:00.663Z,12.94
2022-11-05T18:56:27.683Z,12.91
2022-11-05T18:59:14.859Z,12.90
2022-11-05T19:01:42.566Z,12.91
2022-11-05T19:04:10.127Z,12.87
2022-11-05T19:06:37.443Z,12.67
2022-11-05T19:09:06.144Z,12.66
2022-11-05T19:11:33.690Z,12.59
2022-11-05T19:14:05.699Z,12.58
2022-11-05T19:16:33.134Z,12.50
2022-11-05T19:19:02.340Z,12.43
2022-11-05T19:21:30.282Z,12.34
2022-11-05T19:24:01.336Z,12.30
2022-11-05T19:26:29.349Z,12.21
2022-11-05T19:29:00.650Z,12.11
2022-11-05T19:31:31.332Z,12.10
2022-11-05T19:33:58.782Z,12.17
2022-11-05T19:36:26.278Z,12.20
2022-11-05T19:39:02.339Z,12.18
2022-11-05T19:41:29.400Z,12.16
2022-11-05T19:43:58.159Z,12.08
2022-11-05T19:46:25.450Z,12.05
2022-11-05T19:48:52.913Z,11.96
2022-11-05T19:51:24.438Z,12.01
2022-11-05T19:53:52.907Z,11.92
2022-11-05T19:56:22.825Z,11.87
2022-11-05T19:58:50.483Z,11.78
2022-11-05T20:01:18.667Z,11.72
2022-11-05T20:03:46.430Z,11.65
2022-11-05T20:06:16.301Z,11.57
2022-11-05T20:09:07.093Z,11.56
2022-11-05T20:11:32.215Z,11.46
2022-11-05T20:13:59.518Z,11.50
2022-11-05T20:16:30.066Z,11.41
2022-11-05T20:18:57.949Z,11.45
2022-11-05T20:21:25.068Z,11.41
2022-11-05T20:23:51.994Z,11.35
2022-11-05T20:26:18.925Z,11.29
2022-11-05T20:28:46.361Z,11.30
2022-11-05T20:31:16.626Z,11.22
2022-11-05T20:33:45.082Z,11.25
2022-11-05T20:36:20.870Z,11.22
2022-11-05T20:38:49.147Z,11.18
2022-11-05T20:41:19.585Z,11.15
2022-11-05T20:43:48.159Z,11.13
2022-11-05T20:46:17.314Z,11.09
2022-11-05T20:48:45.417Z,11.14
2022-11-05T20:51:15.635Z,11.15
2022-11-05T20:53:43.609Z,11.11
2022-11-05T20:56:23.403Z,11.10
2022-11-05T20:58:50.928Z,11.01
2022-11-05T21:01:19.204Z,10.95
2022-11-05T21:03:47.988Z,10.99
2022-11-05T21:06:15.798Z,10.92
2022-11-05T21:08:43.609Z,10.80
2022-11-05T21:11:11.344Z,10.86
2022-11-05T21:13:38.726Z,10.76
2022-11-05T21:16:07.725Z,10.89
2022-11-05T21:21:20.152Z,10.88
2022-11-05T21:23:47.559Z,10.86
2022-11-05T21:26:15.375Z,10.77
2022-11-05T21:28:42.832Z,10.87
2022-11-05T21:31:10.436Z,10.80
2022-11-05T21:33:38.140Z,10.71
2022-11-05T21:36:11.370Z,10.74
2022-11-05T21:38:38.770Z,10.69
2022-11-05T21:41:06.512Z,10.71
2022-11-05T21:43:33.744Z,10.74
2022-11-05T21:46:02.453Z,10.69
2022-11-05T21:48:30.409Z,10.69
2022-11-05T21:51:15.945Z,10.71
2022-11-05T21:54:01.597Z,10.72
2022-11-05T21:57:18.814Z,10.84
2022-11-05T21:59:48.915Z,10.74
2022-11-05T22:02:19.634Z,10.69
2022-11-05T22:04:49.522Z,10.61
2022-11-05T22:07:20.149Z,10.63
2022-11-05T22:09:47.337Z,10.61
2022-11-05T22:12:14.701Z,10.60
2022-11-05T22:14:42.264Z,10.60
2022-11-05T22:17:10.847Z,10.59
2022-11-05T22:19:38.004Z,10.61
2022-11-05T22:22:06.958Z,10.61
2022-11-05T22:24:35.070Z,10.65
2022-11-05T22:27:05.037Z,10.66
2022-11-05T22:29:32.605Z,10.66
2022-11-05T22:31:59.959Z,10.64
2022-11-05T22:34:26.987Z,10.58
2022-11-05T22:36:54.191Z,10.46
2022-11-05T22:39:21.768Z,10.55
2022-11-05T22:41:49.301Z,10.51
2022-11-05T22:44:17.385Z,10.45
2022-11-05T22:46:44.554Z,10.32
2022-11-05T22:49:12.293Z,10.31
2022-11-05T22:51:39.852Z,10.33
2022-11-05T22:54:07.910Z,10.34
2022-11-05T22:56:38.775Z,10.35
2022-11-05T22:59:07.112Z,10.24
2022-11-05T23:01:34.240Z,10.29
2022-11-05T23:04:01.494Z,10.24
2022-11-05T23:06:51.736Z,10.26
2022-11-05T23:09:43.738Z,10.31
2022-11-05T23:12:28.718Z,10.30
2022-11-05T23:14:58.043Z,10.26
2022-11-05T23:17:44.238Z,10.24
2022-11-05T23:20:33.321Z,10.27
2022-11-05T23:23:19.162Z,10.18
2022-11-05T23:25:46.335Z,10.18
2022-11-05T23:28:14.148Z,10.06
2022-11-05T23:31:03.241Z,10.01
2022-11-05T23:33:34.064Z,9.85
2022-11-05T23:36:19.858Z,9.81
2022-11-05T23:38:47.183Z,9.70
2022-11-05T23:41:32.561Z,9.66
2022-11-05T23:44:18.248Z,9.58
2022-11-05T23:47:03.465Z,9.55
2022-11-05T23:49:30.903Z,9.57
2022-11-05T23:51:57.776Z,9.73
2022-11-05T23:54:24.801Z,9.66
2022-11-05T23:56:51.671Z,9.51
2022-11-05T23:59:18.943Z,9.55
